sensor_id;sensor_type;location;lat;lon;timestamp;pressure;altitude;pressure_sealevel;temperature
75353;BMP280;76704;51.574;7.088;2024-02-21T00:00:34;74651.41;;;13.61
75353;BMP280;76704;51.574;7.088;2024-02-21T00:03:00;74432.34;;;13.55
75353;BMP280;76704;51.574;7.088;2024-02-21T00:05:28;74641.13;;;13.59
75353;BMP280;76704;51.574;7.088;2024-02-21T00:07:57;74608.28;;;13.58
75353;BMP280;76704;51.574;7.088;2024-02-21T00:10:24;74357.63;;;13.55
75353;BMP280;76704;51.574;7.088;2024-02-21T00:12:52;74169.44;;;13.53
75353;BMP280;76704;51.574;7.088;2024-02-21T00:15:19;74790.22;;;13.62
75353;BMP280;76704;51.574;7.088;2024-02-21T00:17:45;73852.63;;;13.46
75353;BMP280;76704;51.574;7.088;2024-02-21T00:20:15;74348.47;;;13.54
75353;BMP280;76704;51.574;7.088;2024-02-21T00:22:42;74383.94;;;13.55
75353;BMP280;76704;51.574;7.088;2024-02-21T00:25:09;74518.91;;;13.55
75353;BMP280;76704;51.574;7.088;2024-02-21T00:27:36;74396.84;;;13.54
75353;BMP280;76704;51.574;7.088;2024-02-21T00:30:03;74525.41;;;13.56
75353;BMP280;76704;51.574;7.088;2024-02-21T00:32:30;74804.09;;;13.60
75353;BMP280;76704;51.574;7.088;2024-02-21T00:34:57;75015.63;;;13.64
75353;BMP280;76704;51.574;7.088;2024-02-21T00:37:24;74477.03;;;13.56
75353;BMP280;76704;51.574;7.088;2024-02-21T00:39:51;74517.34;;;13.56
75353;BMP280;76704;51.574;7.088;2024-02-21T00:42:18;74535.72;;;13.58
75353;BMP280;76704;51.574;7.088;2024-02-21T00:44:44;74653.00;;;13.60
75353;BMP280;76704;51.574;7.088;2024-02-21T00:47:11;74421.03;;;13.54
75353;BMP280;76704;51.574;7.088;2024-02-21T00:49:38;74568.97;;;13.57
75353;BMP280;76704;51.574;7.088;2024-02-21T00:52:05;74826.16;;;13.61
75353;BMP280;76704;51.574;7.088;2024-02-21T00:54:32;74655.13;;;13.59
75353;BMP280;76704;51.574;7.088;2024-02-21T00:57:13;75007.53;;;13.64
75353;BMP280;76704;51.574;7.088;2024-02-21T00:59:40;75158.41;;;13.69
75353;BMP280;76704;51.574;7.088;2024-02-21T01:02:08;74453.41;;;13.57
75353;BMP280;76704;51.574;7.088;2024-02-21T01:04:35;74361.34;;;13.54
75353;BMP280;76704;51.574;7.088;2024-02-21T01:07:03;74135.97;;;13.49
75353;BMP280;76704;51.574;7.088;2024-02-21T01:09:30;74718.50;;;13.58
75353;BMP280;76704;51.574;7.088;2024-02-21T01:11:57;74589.94;;;13.56
75353;BMP280;76704;51.574;7.088;2024-02-21T01:14:24;74288.69;;;13.51
75353;BMP280;76704;51.574;7.088;2024-02-21T01:16:51;74510.19;;;13.52
75353;BMP280;76704;51.574;7.088;2024-02-21T01:19:18;74638.88;;;13.57
75353;BMP280;76704;51.574;7.088;2024-02-21T01:21:45;74458.13;;;13.54
75353;BMP280;76704;51.574;7.088;2024-02-21T01:24:12;74685.13;;;13.57
75353;BMP280;76704;51.574;7.088;2024-02-21T01:26:39;74779.91;;;13.60
75353;BMP280;76704;51.574;7.088;2024-02-21T01:29:05;74901.56;;;13.63
75353;BMP280;76704;51.574;7.088;2024-02-21T01:31:32;74806.91;;;13.63
75353;BMP280;76704;51.574;7.088;2024-02-21T01:33:59;74244.56;;;13.50
75353;BMP280;76704;51.574;7.088;2024-02-21T01:36:26;74725.03;;;13.59
75353;BMP280;76704;51.574;7.088;2024-02-21T01:38:53;74821.91;;;13.62
75353;BMP280;76704;51.574;7.088;2024-02-21T01:41:20;74748.75;;;13.61
75353;BMP280;76704;51.574;7.088;2024-02-21T01:43:46;74563.97;;;13.52
75353;BMP280;76704;51.574;7.088;2024-02-21T01:46:13;74597.53;;;13.58
75353;BMP280;76704;51.574;7.088;2024-02-21T01:48:40;74653.00;;;13.60
75353;BMP280;76704;51.574;7.088;2024-02-21T01:51:07;74770.25;;;13.61
75353;BMP280;76704;51.574;7.088;2024-02-21T01:53:37;74867.72;;;13.64
75353;BMP280;76704;51.574;7.088;2024-02-21T01:56:05;74952.22;;;13.65
75353;BMP280;76704;51.574;7.088;2024-02-21T01:58:36;74976.44;;;13.65
75353;BMP280;76704;51.574;7.088;2024-02-21T02:01:04;75047.47;;;13.66
75353;BMP280;76704;51.574;7.088;2024-02-21T02:03:31;75232.13;;;13.70
75353;BMP280;76704;51.574;7.088;2024-02-21T02:05:58;75123.84;;;13.67
75353;BMP280;76704;51.574;7.088;2024-02-21T02:08:25;74721.44;;;13.63
75353;BMP280;76704;51.574;7.088;2024-02-21T02:10:52;75093.28;;;13.69
75353;BMP280;76704;51.574;7.088;2024-02-21T02:13:19;75088.47;;;13.69
75353;BMP280;76704;51.574;7.088;2024-02-21T02:15:47;75127.25;;;13.70
75353;BMP280;76704;51.574;7.088;2024-02-21T02:18:15;74985.72;;;13.69
75353;BMP280;76704;51.574;7.088;2024-02-21T02:20:44;74955.00;;;13.68
75353;BMP280;76704;51.574;7.088;2024-02-21T02:23:25;74974.97;;;13.69
75353;BMP280;76704;51.574;7.088;2024-02-21T02:25:52;74504.59;;;13.59
75353;BMP280;76704;51.574;7.088;2024-02-21T02:28:20;74504.59;;;13.59
75353;BMP280;76704;51.574;7.088;2024-02-21T02:30:48;74833.34;;;13.65
75353;BMP280;76704;51.574;7.088;2024-02-21T02:33:15;74603.56;;;13.61
75353;BMP280;76704;51.574;7.088;2024-02-21T02:35:45;74633.69;;;13.62
75353;BMP280;76704;51.574;7.088;2024-02-21T02:38:12;74209.19;;;13.52
75353;BMP280;76704;51.574;7.088;2024-02-21T02:40:40;74481.94;;;13.58
75353;BMP280;76704;51.574;7.088;2024-02-21T02:43:08;74214.56;;;13.52
75353;BMP280;76704;51.574;7.088;2024-02-21T02:45:35;73956.84;;;13.45
75353;BMP280;76704;51.574;7.088;2024-02-21T02:48:02;73696.63;;;13.40
75353;BMP280;76704;51.574;7.088;2024-02-21T02:50:30;74001.50;;;13.47
75353;BMP280;76704;51.574;7.088;2024-02-21T02:52:57;74245.56;;;13.49
75353;BMP280;76704;51.574;7.088;2024-02-21T02:55:24;74429.09;;;13.54
75353;BMP280;76704;51.574;7.088;2024-02-21T02:57:53;74166.63;;;13.50
75353;BMP280;76704;51.574;7.088;2024-02-21T03:00:20;74346.81;;;13.53
75353;BMP280;76704;51.574;7.088;2024-02-21T03:02:48;74068.69;;;13.47
75353;BMP280;76704;51.574;7.088;2024-02-21T03:05:20;74006.78;;;13.44
75353;BMP280;76704;51.574;7.088;2024-02-21T03:07:48;74263.81;;;13.48
75353;BMP280;76704;51.574;7.088;2024-02-21T03:10:16;74225.09;;;13.47
75353;BMP280;76704;51.574;7.088;2024-02-21T03:12:44;74111.59;;;13.44
75353;BMP280;76704;51.574;7.088;2024-02-21T03:15:13;73923.94;;;13.42
75353;BMP280;76704;51.574;7.088;2024-02-21T03:17:40;73910.34;;;13.37
75353;BMP280;76704;51.574;7.088;2024-02-21T03:20:08;74092.22;;;13.43
75353;BMP280;76704;51.574;7.088;2024-02-21T03:22:38;73935.75;;;13.40
75353;BMP280;76704;51.574;7.088;2024-02-21T03:25:06;74248.63;;;13.44
75353;BMP280;76704;51.574;7.088;2024-02-21T03:27:34;73944.34;;;13.41
75353;BMP280;76704;51.574;7.088;2024-02-21T03:30:00;73594.34;;;13.33
75353;BMP280;76704;51.574;7.088;2024-02-21T03:32:28;74086.19;;;13.40
75353;BMP280;76704;51.574;7.088;2024-02-21T03:34:56;74210.44;;;13.43
75353;BMP280;76704;51.574;7.088;2024-02-21T03:37:23;73114.97;;;13.24
75353;BMP280;76704;51.574;7.088;2024-02-21T03:39:50;73337.38;;;13.26
75353;BMP280;76704;51.574;7.088;2024-02-21T03:42:17;73399.69;;;13.27
75353;BMP280;76704;51.574;7.088;2024-02-21T03:44:44;73777.53;;;13.33
75353;BMP280;76704;51.574;7.088;2024-02-21T03:47:11;74063.03;;;13.39
75353;BMP280;76704;51.574;7.088;2024-02-21T03:49:38;73900.06;;;13.35
75353;BMP280;76704;51.574;7.088;2024-02-21T03:52:06;73936.66;;;13.36
75353;BMP280;76704;51.574;7.088;2024-02-21T03:54:33;74268.44;;;13.42
75353;BMP280;76704;51.574;7.088;2024-02-21T03:57:00;74203.97;;;13.42
75353;BMP280;76704;51.574;7.088;2024-02-21T03:59:26;74208.75;;;13.42
75353;BMP280;76704;51.574;7.088;2024-02-21T04:01:53;73701.78;;;13.33
75353;BMP280;76704;51.574;7.088;2024-02-21T04:04:21;73905.44;;;13.35
75353;BMP280;76704;51.574;7.088;2024-02-21T04:06:49;73715.22;;;13.33
75353;BMP280;76704;51.574;7.088;2024-02-21T04:09:16;74247.97;;;13.41
75353;BMP280;76704;51.574;7.088;2024-02-21T04:11:43;74278.06;;;13.41
75353;BMP280;76704;51.574;7.088;2024-02-21T04:14:11;74562.69;;;13.49
75353;BMP280;76704;51.574;7.088;2024-02-21T04:16:39;74422.31;;;13.46
75353;BMP280;76704;51.574;7.088;2024-02-21T04:19:07;74324.41;;;13.44
75353;BMP280;76704;51.574;7.088;2024-02-21T04:21:35;74288.94;;;13.44
75353;BMP280;76704;51.574;7.088;2024-02-21T04:24:03;74153.38;;;13.40
75353;BMP280;76704;51.574;7.088;2024-02-21T04:26:33;74037.63;;;13.35
75353;BMP280;76704;51.574;7.088;2024-02-21T04:29:01;74203.38;;;13.42
75353;BMP280;76704;51.574;7.088;2024-02-21T04:31:29;74401.78;;;13.44
75353;BMP280;76704;51.574;7.088;2024-02-21T04:33:56;74591.25;;;13.50
75353;BMP280;76704;51.574;7.088;2024-02-21T04:36:24;74586.44;;;13.51
75353;BMP280;76704;51.574;7.088;2024-02-21T04:38:51;74373.34;;;13.45
75353;BMP280;76704;51.574;7.088;2024-02-21T04:41:18;74252.34;;;13.42
75353;BMP280;76704;51.574;7.088;2024-02-21T04:43:46;74027.53;;;13.38
75353;BMP280;76704;51.574;7.088;2024-02-21T04:46:15;73911.94;;;13.36
75353;BMP280;76704;51.574;7.088;2024-02-21T04:48:42;73821.63;;;13.34
75353;BMP280;76704;51.574;7.088;2024-02-21T04:51:12;73954.91;;;13.36
75353;BMP280;76704;51.574;7.088;2024-02-21T04:53:39;73866.75;;;13.34
75353;BMP280;76704;51.574;7.088;2024-02-21T04:56:07;73713.94;;;13.27
75353;BMP280;76704;51.574;7.088;2024-02-21T04:58:38;73971.03;;;13.36
75353;BMP280;76704;51.574;7.088;2024-02-21T05:01:05;73624.81;;;13.29
75353;BMP280;76704;51.574;7.088;2024-02-21T05:03:32;73155.19;;;13.22
75353;BMP280;76704;51.574;7.088;2024-02-21T05:05:59;73933.34;;;13.33
75353;BMP280;76704;51.574;7.088;2024-02-21T05:08:27;74080.72;;;13.38
75353;BMP280;76704;51.574;7.088;2024-02-21T05:10:53;74197.94;;;13.39
75353;BMP280;76704;51.574;7.088;2024-02-21T05:13:21;74270.00;;;13.41
75353;BMP280;76704;51.574;7.088;2024-02-21T05:15:48;74254.44;;;13.42
75353;BMP280;76704;51.574;7.088;2024-02-21T05:18:15;74201.75;;;13.40
75353;BMP280;76704;51.574;7.088;2024-02-21T05:20:42;74220.00;;;13.40
75353;BMP280;76704;51.574;7.088;2024-02-21T05:23:09;74008.19;;;13.38
75353;BMP280;76704;51.574;7.088;2024-02-21T05:25:36;74240.44;;;13.41
75353;BMP280;76704;51.574;7.088;2024-02-21T05:28:03;74145.88;;;13.41
75353;BMP280;76704;51.574;7.088;2024-02-21T05:30:30;74276.50;;;13.42
75353;BMP280;76704;51.574;7.088;2024-02-21T05:32:57;74465.31;;;13.46
75353;BMP280;76704;51.574;7.088;2024-02-21T05:35:28;74592.84;;;13.49
75353;BMP280;76704;51.574;7.088;2024-02-21T05:37:55;74088.97;;;13.43
75353;BMP280;76704;51.574;7.088;2024-02-21T05:40:22;74224.31;;;13.41
75353;BMP280;76704;51.574;7.088;2024-02-21T05:42:49;74464.81;;;13.48
75353;BMP280;76704;51.574;7.088;2024-02-21T05:45:18;74220.63;;;13.43
75353;BMP280;76704;51.574;7.088;2024-02-21T05:47:45;73795.84;;;13.35
75353;BMP280;76704;51.574;7.088;2024-02-21T05:50:12;74132.44;;;13.41
75353;BMP280;76704;51.574;7.088;2024-02-21T05:52:38;74026.44;;;13.37
75353;BMP280;76704;51.574;7.088;2024-02-21T05:55:07;74303.38;;;13.42
75353;BMP280;76704;51.574;7.088;2024-02-21T05:57:35;74323.22;;;13.41
75353;BMP280;76704;51.574;7.088;2024-02-21T06:00:06;74577.16;;;13.47
75353;BMP280;76704;51.574;7.088;2024-02-21T06:02:37;74481.06;;;13.50
75353;BMP280;76704;51.574;7.088;2024-02-21T06:05:04;74079.78;;;13.42
75353;BMP280;76704;51.574;7.088;2024-02-21T06:07:34;73896.38;;;13.36
75353;BMP280;76704;51.574;7.088;2024-02-21T06:10:02;73760.38;;;13.35
75353;BMP280;76704;51.574;7.088;2024-02-21T06:12:29;73701.22;;;13.32
75353;BMP280;76704;51.574;7.088;2024-02-21T06:14:56;73867.81;;;13.35
75353;BMP280;76704;51.574;7.088;2024-02-21T06:17:23;73925.94;;;13.36
75353;BMP280;76704;51.574;7.088;2024-02-21T06:19:49;74237.75;;;13.41
75353;BMP280;76704;51.574;7.088;2024-02-21T06:22:16;74578.72;;;13.46
75353;BMP280;76704;51.574;7.088;2024-02-21T06:24:43;74238.91;;;13.42
75353;BMP280;76704;51.574;7.088;2024-02-21T06:27:11;74529.44;;;13.50
75353;BMP280;76704;51.574;7.088;2024-02-21T06:29:38;74608.50;;;13.51
75353;BMP280;76704;51.574;7.088;2024-02-21T06:32:05;74482.63;;;13.49
75353;BMP280;76704;51.574;7.088;2024-02-21T06:34:32;74588.69;;;13.53
75353;BMP280;76704;51.574;7.088;2024-02-21T06:37:00;74695.28;;;13.44
75353;BMP280;76704;51.574;7.088;2024-02-21T06:39:27;74725.88;;;13.55
75353;BMP280;76704;51.574;7.088;2024-02-21T06:41:55;74571.56;;;13.54
75353;BMP280;76704;51.574;7.088;2024-02-21T06:44:28;74502.56;;;13.50
75353;BMP280;76704;51.574;7.088;2024-02-21T06:46:55;74532.81;;;13.53
75353;BMP280;76704;51.574;7.088;2024-02-21T06:49:22;74698.00;;;13.57
75353;BMP280;76704;51.574;7.088;2024-02-21T06:51:49;74661.94;;;13.56
75353;BMP280;76704;51.574;7.088;2024-02-21T06:54:16;74635.63;;;13.56
75353;BMP280;76704;51.574;7.088;2024-02-21T06:56:46;74733.09;;;13.59
75353;BMP280;76704;51.574;7.088;2024-02-21T06:59:13;74680.31;;;13.58
75353;BMP280;76704;51.574;7.088;2024-02-21T07:01:48;74726.56;;;13.58
75353;BMP280;76704;51.574;7.088;2024-02-21T07:04:15;74509.28;;;13.56
75353;BMP280;76704;51.574;7.088;2024-02-21T07:06:42;74574.34;;;13.57
75353;BMP280;76704;51.574;7.088;2024-02-21T07:09:09;74309.63;;;13.51
75353;BMP280;76704;51.574;7.088;2024-02-21T07:11:36;74371.00;;;13.53
75353;BMP280;76704;51.574;7.088;2024-02-21T07:14:03;74029.97;;;13.46
75353;BMP280;76704;51.574;7.088;2024-02-21T07:16:30;74286.91;;;13.47
75353;BMP280;76704;51.574;7.088;2024-02-21T07:18:59;73758.41;;;13.40
75353;BMP280;76704;51.574;7.088;2024-02-21T07:21:26;73740.66;;;13.39
75353;BMP280;76704;51.574;7.088;2024-02-21T07:23:53;74049.22;;;13.43
75353;BMP280;76704;51.574;7.088;2024-02-21T07:26:20;73988.44;;;13.42
75353;BMP280;76704;51.574;7.088;2024-02-21T07:28:47;73697.66;;;13.39
75353;BMP280;76704;51.574;7.088;2024-02-21T07:31:14;73580.94;;;13.35
75353;BMP280;76704;51.574;7.088;2024-02-21T07:33:41;74075.53;;;13.43
75353;BMP280;76704;51.574;7.088;2024-02-21T07:36:10;73892.28;;;13.42
75353;BMP280;76704;51.574;7.088;2024-02-21T07:38:37;74110.56;;;13.46
75353;BMP280;76704;51.574;7.088;2024-02-21T07:41:04;74624.19;;;13.53
75353;BMP280;76704;51.574;7.088;2024-02-21T07:43:31;74816.44;;;13.59
75353;BMP280;76704;51.574;7.088;2024-02-21T07:45:58;74855.59;;;13.58
75353;BMP280;76704;51.574;7.088;2024-02-21T07:48:25;74744.41;;;13.60
75353;BMP280;76704;51.574;7.088;2024-02-21T07:50:53;74826.28;;;13.63
75353;BMP280;76704;51.574;7.088;2024-02-21T07:53:20;75193.34;;;13.69
75353;BMP280;76704;51.574;7.088;2024-02-21T07:55:47;75428.16;;;13.75
75353;BMP280;76704;51.574;7.088;2024-02-21T07:58:14;75401.84;;;13.76
75353;BMP280;76704;51.574;7.088;2024-02-21T08:00:41;75305.03;;;13.76
75353;BMP280;76704;51.574;7.088;2024-02-21T08:03:08;75140.28;;;13.73
75353;BMP280;76704;51.574;7.088;2024-02-21T08:05:35;74886.25;;;13.69
75353;BMP280;76704;51.574;7.088;2024-02-21T08:08:03;74699.03;;;13.67
75353;BMP280;76704;51.574;7.088;2024-02-21T08:10:30;74875.50;;;13.69
75353;BMP280;76704;51.574;7.088;2024-02-21T08:12:58;74696.22;;;13.65
75353;BMP280;76704;51.574;7.088;2024-02-21T08:15:24;74526.75;;;13.62
75353;BMP280;76704;51.574;7.088;2024-02-21T08:17:55;74786.66;;;13.66
75353;BMP280;76704;51.574;7.088;2024-02-21T08:20:31;74735.56;;;13.66
75353;BMP280;76704;51.574;7.088;2024-02-21T08:22:58;74883.56;;;13.69
75353;BMP280;76704;51.574;7.088;2024-02-21T08:25:25;75308.84;;;13.77
75353;BMP280;76704;51.574;7.088;2024-02-21T08:27:56;75413.34;;;13.79
75353;BMP280;76704;51.574;7.088;2024-02-21T08:30:24;75052.66;;;13.74
75353;BMP280;76704;51.574;7.088;2024-02-21T08:32:50;75243.88;;;13.79
75353;BMP280;76704;51.574;7.088;2024-02-21T08:35:17;75248.81;;;13.81
75353;BMP280;76704;51.574;7.088;2024-02-21T08:37:46;75354.16;;;13.79
75353;BMP280;76704;51.574;7.088;2024-02-21T08:40:15;75366.19;;;13.82
75353;BMP280;76704;51.574;7.088;2024-02-21T08:42:46;75380.75;;;13.83
75353;BMP280;76704;51.574;7.088;2024-02-21T08:45:13;75784.00;;;13.88
75353;BMP280;76704;51.574;7.088;2024-02-21T08:47:40;75320.59;;;13.85
75353;BMP280;76704;51.574;7.088;2024-02-21T08:50:08;75575.88;;;13.89
75353;BMP280;76704;51.574;7.088;2024-02-21T08:52:53;75837.75;;;13.95
75353;BMP280;76704;51.574;7.088;2024-02-21T08:55:20;75904.06;;;13.96
75353;BMP280;76704;51.574;7.088;2024-02-21T08:57:47;75344.38;;;13.87
75353;BMP280;76704;51.574;7.088;2024-02-21T09:00:15;75611.56;;;13.92
75353;BMP280;76704;51.574;7.088;2024-02-21T09:02:42;75195.16;;;13.83
75353;BMP280;76704;51.574;7.088;2024-02-21T09:05:12;75455.22;;;13.87
75353;BMP280;76704;51.574;7.088;2024-02-21T09:07:39;75297.06;;;13.88
75353;BMP280;76704;51.574;7.088;2024-02-21T09:10:06;75043.28;;;13.80
75353;BMP280;76704;51.574;7.088;2024-02-21T09:12:33;75258.72;;;13.85
75353;BMP280;76704;51.574;7.088;2024-02-21T09:15:00;75272.88;;;13.88
75353;BMP280;76704;51.574;7.088;2024-02-21T09:17:27;75102.72;;;13.85
75353;BMP280;76704;51.574;7.088;2024-02-21T09:19:56;74954.06;;;13.82
75353;BMP280;76704;51.574;7.088;2024-02-21T09:22:26;74792.06;;;13.79
75353;BMP280;76704;51.574;7.088;2024-02-21T09:24:53;74924.41;;;13.79
75353;BMP280;76704;51.574;7.088;2024-02-21T09:27:20;74974.47;;;13.81
75353;BMP280;76704;51.574;7.088;2024-02-21T09:29:47;74562.81;;;13.76
75353;BMP280;76704;51.574;7.088;2024-02-21T09:32:14;74974.34;;;13.78
75353;BMP280;76704;51.574;7.088;2024-02-21T09:34:41;75189.22;;;13.83
75353;BMP280;76704;51.574;7.088;2024-02-21T09:37:09;74492.91;;;13.76
75353;BMP280;76704;51.574;7.088;2024-02-21T09:39:36;75061.09;;;13.81
75353;BMP280;76704;51.574;7.088;2024-02-21T09:42:10;75511.88;;;13.90
75353;BMP280;76704;51.574;7.088;2024-02-21T09:44:38;75465.28;;;13.94
75353;BMP280;76704;51.574;7.088;2024-02-21T09:47:08;75708.75;;;13.97
75353;BMP280;76704;51.574;7.088;2024-02-21T09:49:36;76148.47;;;14.06
75353;BMP280;76704;51.574;7.088;2024-02-21T09:52:06;75911.63;;;14.06
75353;BMP280;76704;51.574;7.088;2024-02-21T09:54:36;75385.72;;;13.95
75353;BMP280;76704;51.574;7.088;2024-02-21T09:57:05;75842.06;;;14.04
75353;BMP280;76704;51.574;7.088;2024-02-21T09:59:33;76194.19;;;14.13
75353;BMP280;76704;51.574;7.088;2024-02-21T10:02:00;76003.31;;;14.08
75353;BMP280;76704;51.574;7.088;2024-02-21T10:04:29;76277.81;;;14.15
75353;BMP280;76704;51.574;7.088;2024-02-21T10:06:56;76200.91;;;14.16
75353;BMP280;76704;51.574;7.088;2024-02-21T10:09:25;76561.06;;;14.23
75353;BMP280;76704;51.574;7.088;2024-02-21T10:11:55;76607.59;;;14.26
75353;BMP280;76704;51.574;7.088;2024-02-21T10:14:23;76920.03;;;14.33
75353;BMP280;76704;51.574;7.088;2024-02-21T10:16:57;76984.31;;;14.35
75353;BMP280;76704;51.574;7.088;2024-02-21T10:19:27;76861.94;;;14.34
75353;BMP280;76704;51.574;7.088;2024-02-21T10:22:09;76824.41;;;14.37
75353;BMP280;76704;51.574;7.088;2024-02-21T10:24:37;77102.88;;;14.42
75353;BMP280;76704;51.574;7.088;2024-02-21T10:27:10;76845.00;;;14.38
75353;BMP280;76704;51.574;7.088;2024-02-21T10:29:40;76574.34;;;14.35
75353;BMP280;76704;51.574;7.088;2024-02-21T10:32:11;76307.34;;;14.30
75353;BMP280;76704;51.574;7.088;2024-02-21T10:34:41;76445.44;;;14.33
75353;BMP280;76704;51.574;7.088;2024-02-21T10:37:11;76206.00;;;14.28
75353;BMP280;76704;51.574;7.088;2024-02-21T10:39:41;76585.69;;;14.35
75353;BMP280;76704;51.574;7.088;2024-02-21T10:42:10;76124.06;;;14.27
75353;BMP280;76704;51.574;7.088;2024-02-21T10:44:39;76897.53;;;14.42
75353;BMP280;76704;51.574;7.088;2024-02-21T10:47:09;77124.63;;;14.45
75353;BMP280;76704;51.574;7.088;2024-02-21T10:49:39;76944.13;;;14.45
75353;BMP280;76704;51.574;7.088;2024-02-21T10:57:42;76352.69;;;14.39
75353;BMP280;76704;51.574;7.088;2024-02-21T11:00:10;76586.06;;;14.33
75353;BMP280;76704;51.574;7.088;2024-02-21T11:02:39;77012.84;;;14.48
75353;BMP280;76704;51.574;7.088;2024-02-21T11:05:07;76744.97;;;14.47
75353;BMP280;76704;51.574;7.088;2024-02-21T11:07:37;77141.22;;;14.50
75353;BMP280;76704;51.574;7.088;2024-02-21T11:10:04;77068.28;;;14.54
75353;BMP280;76704;51.574;7.088;2024-02-21T11:12:34;77138.75;;;14.52
75353;BMP280;76704;51.574;7.088;2024-02-21T11:15:06;77322.00;;;14.60
75353;BMP280;76704;51.574;7.088;2024-02-21T11:17:33;77182.47;;;14.60
75353;BMP280;76704;51.574;7.088;2024-02-21T11:20:15;77197.09;;;14.61
75353;BMP280;76704;51.574;7.088;2024-02-21T11:22:42;77006.50;;;14.57
75353;BMP280;76704;51.574;7.088;2024-02-21T11:25:10;77234.47;;;14.63
75353;BMP280;76704;51.574;7.088;2024-02-21T11:27:45;77193.09;;;14.65
75353;BMP280;76704;51.574;7.088;2024-02-21T11:30:13;77470.56;;;14.69
75353;BMP280;76704;51.574;7.088;2024-02-21T11:32:41;77412.41;;;14.70
75353;BMP280;76704;51.574;7.088;2024-02-21T11:35:08;77849.25;;;14.77
75353;BMP280;76704;51.574;7.088;2024-02-21T11:37:45;78123.50;;;14.86
75353;BMP280;76704;51.574;7.088;2024-02-21T11:40:13;77769.44;;;14.83
75353;BMP280;76704;51.574;7.088;2024-02-21T11:42:40;78169.03;;;14.88
75353;BMP280;76704;51.574;7.088;2024-02-21T11:45:07;78015.31;;;14.88
75353;BMP280;76704;51.574;7.088;2024-02-21T11:47:37;78069.84;;;14.89
75353;BMP280;76704;51.574;7.088;2024-02-21T11:50:11;78368.47;;;14.97
75353;BMP280;76704;51.574;7.088;2024-02-21T11:52:41;77006.41;;;14.76
75353;BMP280;76704;51.574;7.088;2024-02-21T11:55:08;77747.75;;;14.88
75353;BMP280;76704;51.574;7.088;2024-02-21T11:57:37;78203.31;;;14.97
75353;BMP280;76704;51.574;7.088;2024-02-21T12:00:15;78533.22;;;15.04
75353;BMP280;76704;51.574;7.088;2024-02-21T12:02:43;78232.31;;;15.01
75353;BMP280;76704;51.574;7.088;2024-02-21T12:05:10;78685.44;;;15.10
75353;BMP280;76704;51.574;7.088;2024-02-21T12:07:38;79171.16;;;15.19
75353;BMP280;76704;51.574;7.088;2024-02-21T12:10:11;79717.13;;;15.33
75353;BMP280;76704;51.574;7.088;2024-02-21T12:12:38;79707.22;;;15.36
75353;BMP280;76704;51.574;7.088;2024-02-21T12:15:06;79816.75;;;15.40
75353;BMP280;76704;51.574;7.088;2024-02-21T12:17:37;79698.56;;;15.41
75353;BMP280;76704;51.574;7.088;2024-02-21T12:20:06;79833.59;;;15.45
75353;BMP280;76704;51.574;7.088;2024-02-21T12:22:38;79966.25;;;15.48
75353;BMP280;76704;51.574;7.088;2024-02-21T12:25:25;80152.41;;;15.54
75353;BMP280;76704;51.574;7.088;2024-02-21T12:27:55;80049.16;;;15.54
75353;BMP280;76704;51.574;7.088;2024-02-21T12:30:23;80365.91;;;15.59
75353;BMP280;76704;51.574;7.088;2024-02-21T12:32:50;80192.72;;;15.61
75353;BMP280;76704;51.574;7.088;2024-02-21T12:35:17;80284.03;;;15.65
75353;BMP280;76704;51.574;7.088;2024-02-21T12:37:44;80260.03;;;15.68
75353;BMP280;76704;51.574;7.088;2024-02-21T12:40:11;80237.16;;;15.62
75353;BMP280;76704;51.574;7.088;2024-02-21T12:42:41;80389.81;;;15.72
75353;BMP280;76704;51.574;7.088;2024-02-21T12:45:08;80757.84;;;15.79
75353;BMP280;76704;51.574;7.088;2024-02-21T12:47:35;81245.09;;;15.91
75353;BMP280;76704;51.574;7.088;2024-02-21T12:50:03;81129.41;;;15.91
75353;BMP280;76704;51.574;7.088;2024-02-21T12:52:30;81014.34;;;15.92
75353;BMP280;76704;51.574;7.088;2024-02-21T12:54:58;81012.88;;;15.93
75353;BMP280;76704;51.574;7.088;2024-02-21T12:57:25;80428.97;;;15.82
75353;BMP280;76704;51.574;7.088;2024-02-21T12:59:54;80466.56;;;15.84
75353;BMP280;76704;51.574;7.088;2024-02-21T13:02:20;81121.41;;;15.96
75353;BMP280;76704;51.574;7.088;2024-02-21T13:04:47;80863.19;;;15.90
75353;BMP280;76704;51.574;7.088;2024-02-21T13:07:14;81406.25;;;16.06
75353;BMP280;76704;51.574;7.088;2024-02-21T13:09:42;81326.94;;;16.07
75353;BMP280;76704;51.574;7.088;2024-02-21T13:12:08;81175.44;;;16.07
75353;BMP280;76704;51.574;7.088;2024-02-21T13:14:35;81866.00;;;16.19
75353;BMP280;76704;51.574;7.088;2024-02-21T13:17:06;81713.63;;;16.20
75353;BMP280;76704;51.574;7.088;2024-02-21T13:19:33;81533.16;;;16.19
75353;BMP280;76704;51.574;7.088;2024-02-21T13:22:00;81154.88;;;16.15
75353;BMP280;76704;51.574;7.088;2024-02-21T13:24:30;81391.25;;;16.18
75353;BMP280;76704;51.574;7.088;2024-02-21T13:26:57;82037.25;;;16.31
75353;BMP280;76704;51.574;7.088;2024-02-21T13:29:24;81575.75;;;16.25
75353;BMP280;76704;51.574;7.088;2024-02-21T13:31:51;81342.06;;;16.22
75353;BMP280;76704;51.574;7.088;2024-02-21T13:34:18;81414.63;;;16.26
75353;BMP280;76704;51.574;7.088;2024-02-21T13:36:46;81901.53;;;16.28
75353;BMP280;76704;51.574;7.088;2024-02-21T13:39:13;81870.19;;;16.36
75353;BMP280;76704;51.574;7.088;2024-02-21T13:41:42;81911.44;;;16.36
75353;BMP280;76704;51.574;7.088;2024-02-21T13:44:09;81406.63;;;16.31
75353;BMP280;76704;51.574;7.088;2024-02-21T13:46:36;81892.25;;;16.38
75353;BMP280;76704;51.574;7.088;2024-02-21T13:49:05;82323.47;;;16.50
75353;BMP280;76704;51.574;7.088;2024-02-21T13:51:35;81671.66;;;16.44
75353;BMP280;76704;51.574;7.088;2024-02-21T13:54:05;81858.81;;;16.46
75353;BMP280;76704;51.574;7.088;2024-02-21T13:56:36;82613.41;;;16.61
75353;BMP280;76704;51.574;7.088;2024-02-21T13:59:02;82329.47;;;16.57
75353;BMP280;76704;51.574;7.088;2024-02-21T14:01:30;82191.97;;;16.58
75353;BMP280;76704;51.574;7.088;2024-02-21T14:04:00;82054.09;;;16.56
75353;BMP280;76704;51.574;7.088;2024-02-21T14:06:27;82248.84;;;16.58
75353;BMP280;76704;51.574;7.088;2024-02-21T14:08:54;82273.41;;;16.62
75353;BMP280;76704;51.574;7.088;2024-02-21T14:11:22;82053.03;;;16.59
75353;BMP280;76704;51.574;7.088;2024-02-21T14:13:50;81950.72;;;16.60
75353;BMP280;76704;51.574;7.088;2024-02-21T14:16:17;82210.25;;;16.64
75353;BMP280;76704;51.574;7.088;2024-02-21T14:18:44;82272.34;;;16.66